createdAt,value
2022-08-05T00:00:51.070Z,20.2
2022-08-05T00:02:27.399Z,20.2
2022-08-05T00:04:03.737Z,20.3
2022-08-05T00:05:39.079Z,20.3
2022-08-05T00:07:15.384Z,20.3
2022-08-05T00:08:51.769Z,20.2
2022-08-05T00:10:28.047Z,20.2
2022-08-05T00:12:04.363Z,20.2
2022-08-05T00:13:40.724Z,20.2
2022-08-05T00:15:17.040Z,20.1
2022-08-05T00:16:53.400Z,20
2022-08-05T00:18:29.696Z,19.8
2022-08-05T00:20:06.058Z,19.8
2022-08-05T00:21:42.409Z,19.8
2022-08-05T00:23:18.701Z,19.8
2022-08-05T00:24:55.070Z,19.8
2022-08-05T00:26:30.397Z,19.9
2022-08-05T00:28:06.710Z,19.9
2022-08-05T00:29:43.042Z,20
2022-08-05T00:31:19.387Z,20
2022-08-05T00:32:55.689Z,20
2022-08-05T00:34:32.011Z,20
2022-08-05T00:36:08.375Z,20
2022-08-05T00:37:44.711Z,20
2022-08-05T00:39:21.051Z,20
2022-08-05T00:40:57.388Z,20
2022-08-05T00:42:33.701Z,20
2022-08-05T00:44:10.020Z,20.1
2022-08-05T00:45:46.331Z,20.1
2022-08-05T00:47:22.718Z,20.1
2022-08-05T00:48:58.005Z,20.1
2022-08-05T00:50:34.375Z,20.1
2022-08-05T00:52:10.687Z,20
2022-08-05T00:53:47.036Z,20
2022-08-05T00:55:23.381Z,20
2022-08-05T00:56:59.660Z,20
2022-08-05T00:58:36.032Z,20
2022-08-05T01:00:12.329Z,20.1
2022-08-05T01:01:48.677Z,20.1
2022-08-05T01:03:25.005Z,20.1
2022-08-05T01:05:01.310Z,20.1
2022-08-05T01:06:37.652Z,20.2
2022-08-05T01:08:13.981Z,20.2
2022-08-05T01:09:49.318Z,20.1
2022-08-05T01:11:25.687Z,20.1
2022-08-05T01:13:01.983Z,20.1
2022-08-05T01:14:38.325Z,20.1
2022-08-05T01:16:14.668Z,20.1
2022-08-05T01:17:51.004Z,20.1
2022-08-05T01:19:27.319Z,20.1
2022-08-05T01:21:03.667Z,20.1
2022-08-05T01:22:39.989Z,20.1
2022-08-05T01:24:16.306Z,20.1
2022-08-05T01:25:52.621Z,20.1
2022-08-05T01:27:28.983Z,20
2022-08-05T01:29:05.331Z,20
2022-08-05T01:30:41.648Z,20
2022-08-05T01:32:16.968Z,20
2022-08-05T01:33:53.390Z,20
2022-08-05T01:35:29.629Z,19.9
2022-08-05T01:37:05.958Z,19.9
2022-08-05T01:38:42.328Z,19.9
2022-08-05T01:40:18.627Z,19.9
2022-08-05T01:41:54.994Z,19.8
2022-08-05T01:43:31.319Z,19.8
2022-08-05T01:45:07.648Z,19.8
2022-08-05T01:46:43.945Z,19.9
2022-08-05T01:48:20.265Z,19.9
2022-08-05T01:49:56.624Z,20
2022-08-05T01:51:32.967Z,20
2022-08-05T01:53:08.314Z,20
2022-08-05T01:54:44.647Z,20
2022-08-05T01:56:20.943Z,20
2022-08-05T01:57:57.278Z,20
2022-08-05T01:59:33.606Z,20
2022-08-05T02:01:09.948Z,20
2022-08-05T02:02:46.264Z,20
2022-08-05T02:04:22.630Z,20
2022-08-05T02:05:58.967Z,20
2022-08-05T02:07:35.293Z,20
2022-08-05T02:09:11.601Z,19.9
2022-08-05T02:10:47.927Z,20
2022-08-05T02:12:24.260Z,19.9
2022-08-05T02:13:59.618Z,19.9
2022-08-05T02:15:35.934Z,19.8
2022-08-05T02:17:12.254Z,19.7
2022-08-05T02:18:48.593Z,19.7
2022-08-05T02:20:24.918Z,19.7
2022-08-05T02:22:01.257Z,19.7
2022-08-05T02:23:37.594Z,19.8
2022-08-05T02:25:13.910Z,19.8
2022-08-05T02:26:50.263Z,19.8
2022-08-05T02:28:26.575Z,19.8
2022-08-05T02:30:02.918Z,19.8
2022-08-05T02:31:39.256Z,19.8
2022-08-05T02:33:15.604Z,19.8
2022-08-05T02:34:50.910Z,19.8
2022-08-05T02:36:27.248Z,19.8
2022-08-05T02:38:03.577Z,19.7
2022-08-05T02:39:39.923Z,19.7
2022-08-05T02:41:16.248Z,19.7
2022-08-05T02:42:52.558Z,19.6
2022-08-05T02:44:28.931Z,19.5
2022-08-05T02:46:05.248Z,19.5
2022-08-05T02:47:41.582Z,19.5
2022-08-05T02:49:17.882Z,19.5
2022-08-05T02:50:54.254Z,19.5
2022-08-05T02:52:30.585Z,19.5
2022-08-05T02:54:06.910Z,19.5
2022-08-05T02:55:43.211Z,19.4
2022-08-05T02:57:18.551Z,19.4
2022-08-05T02:58:54.888Z,19.3
2022-08-05T03:00:31.233Z,19.3
2022-08-05T03:02:07.578Z,19.2
2022-08-05T03:03:43.892Z,19.1
2022-08-05T03:05:20.221Z,19
2022-08-05T03:06:56.589Z,19
2022-08-05T03:08:32.869Z,18.9
2022-08-05T03:10:09.245Z,18.9
2022-08-05T03:11:45.541Z,18.9
2022-08-05T03:13:21.853Z,18.8
2022-08-05T03:14:58.206Z,18.8
2022-08-05T03:16:34.528Z,18.7
2022-08-05T03:18:09.890Z,18.7
2022-08-05T03:19:46.214Z,18.7
2022-08-05T03:21:22.536Z,18.7
2022-08-05T03:22:58.907Z,18.7
2022-08-05T03:24:35.244Z,18.7
2022-08-05T03:26:11.526Z,18.7
2022-08-05T03:27:47.861Z,18.7
2022-08-05T03:29:23.214Z,18.7
2022-08-05T03:30:59.566Z,18.6
2022-08-05T03:32:35.902Z,18.6
2022-08-05T03:34:12.198Z,18.5
2022-08-05T03:35:48.536Z,18.5
2022-08-05T03:37:24.873Z,18.4
2022-08-05T03:39:01.194Z,18.2
2022-08-05T03:40:37.536Z,18
2022-08-05T03:42:13.879Z,17.9
2022-08-05T03:43:50.186Z,17.8
2022-08-05T03:45:26.526Z,17.8
2022-08-05T03:47:02.848Z,17.8
2022-08-05T03:48:39.216Z,17.8
2022-08-05T03:50:14.539Z,17.8
2022-08-05T03:51:50.899Z,17.8
2022-08-05T03:53:27.200Z,17.8
2022-08-05T03:55:03.527Z,17.8
2022-08-05T03:56:39.866Z,17.8
2022-08-05T03:58:16.217Z,17.8
2022-08-05T04:01:28.854Z,17.8
2022-08-05T04:03:05.198Z,17.7
2022-08-05T04:04:41.508Z,17.7
2022-08-05T04:06:17.865Z,17.7
2022-08-05T04:07:54.164Z,17.6
2022-08-05T04:09:30.500Z,17.7
2022-08-05T04:11:06.829Z,17.6
2022-08-05T04:14:18.511Z,17.5
2022-08-05T04:15:54.829Z,17.5
2022-08-05T04:17:31.171Z,17.6
2022-08-05T04:19:07.509Z,17.6
2022-08-05T04:20:43.828Z,17.6
2022-08-05T04:22:20.159Z,17.5
2022-08-05T04:23:56.491Z,17.5
2022-08-05T04:25:32.817Z,17.6
2022-08-05T04:27:09.193Z,17.7
2022-08-05T04:28:45.486Z,17.8
2022-08-05T04:30:21.806Z,17.8
2022-08-05T04:31:58.144Z,17.8
2022-08-05T04:33:34.483Z,17.8
2022-08-05T04:35:09.816Z,17.8
2022-08-05T04:36:46.144Z,17.9
2022-08-05T04:38:22.490Z,17.9
2022-08-05T04:39:58.813Z,17.9
2022-08-05T04:41:35.140Z,17.9
2022-08-05T04:43:11.476Z,17.9
2022-08-05T04:44:47.807Z,17.9
2022-08-05T04:46:24.138Z,17.9
2022-08-05T04:48:00.463Z,18
2022-08-05T04:49:36.795Z,18
2022-08-05T04:51:13.134Z,17.9
2022-08-05T04:52:49.458Z,17.9
2022-08-05T04:54:25.777Z,18
2022-08-05T04:56:02.113Z,18
2022-08-05T04:57:37.471Z,18
2022-08-05T04:59:13.800Z,18
2022-08-05T05:00:50.128Z,18
2022-08-05T05:02:26.459Z,18
2022-08-05T05:04:02.785Z,18
2022-08-05T05:05:39.116Z,18
2022-08-05T05:07:15.473Z,18
2022-08-05T05:08:51.773Z,18
2022-08-05T05:10:28.114Z,17.9
2022-08-05T05:12:04.445Z,17.9
2022-08-05T05:13:40.768Z,17.8
2022-08-05T05:15:17.125Z,17.8
2022-08-05T05:18:29.769Z,17.9
2022-08-05T05:20:05.115Z,17.9
2022-08-05T05:21:41.454Z,17.8
2022-08-05T05:23:17.781Z,17.8
2022-08-05T05:24:54.102Z,17.8
2022-08-05T05:26:30.431Z,17.8
2022-08-05T05:28:06.779Z,17.8
2022-08-05T05:29:43.100Z,17.8
2022-08-05T05:31:19.443Z,17.8
2022-08-05T05:32:55.756Z,17.8
2022-08-05T05:34:32.088Z,17.8
2022-08-05T05:36:08.434Z,17.8
2022-08-05T05:37:44.754Z,17.8
2022-08-05T05:39:21.084Z,17.8
2022-08-05T05:40:57.403Z,17.8
2022-08-05T05:42:33.747Z,17.8
2022-08-05T05:44:10.087Z,17.7
2022-08-05T05:45:45.417Z,17.7
2022-08-05T05:47:21.836Z,17.7
2022-08-05T05:48:58.087Z,17.7
2022-08-05T05:50:34.407Z,17.7
2022-08-05T05:52:10.741Z,17.7
2022-08-05T05:53:47.076Z,17.7
2022-08-05T05:56:59.735Z,17.7
2022-08-05T05:58:36.069Z,17.7
2022-08-05T06:00:12.411Z,17.7
2022-08-05T06:01:48.725Z,17.7
2022-08-05T06:03:25.076Z,17.7
2022-08-05T06:05:01.403Z,17.7
2022-08-05T06:06:37.726Z,17.7
2022-08-05T06:08:14.061Z,17.7
2022-08-05T06:09:50.390Z,17.7
2022-08-05T06:11:25.740Z,17.8
2022-08-05T06:13:02.085Z,17.8
2022-08-05T06:14:38.393Z,17.7
2022-08-05T06:16:14.723Z,17.6
2022-08-05T06:17:51.067Z,17.6
2022-08-05T06:19:27.415Z,17.7
2022-08-05T06:21:03.709Z,17.6
2022-08-05T06:22:40.044Z,17.6
2022-08-05T06:24:16.381Z,17.5
2022-08-05T06:25:52.706Z,17.5
2022-08-05T06:27:29.042Z,17.6
2022-08-05T06:29:05.364Z,17.6
2022-08-05T06:30:41.695Z,17.6
2022-08-05T06:32:17.040Z,17.6
2022-08-05T06:33:53.371Z,17.7
2022-08-05T06:35:29.707Z,17.7
2022-08-05T06:37:06.063Z,17.6
2022-08-05T06:38:42.374Z,17.6
2022-08-05T06:40:18.699Z,17.6
2022-08-05T06:41:55.043Z,17.6
2022-08-05T06:43:31.358Z,17.6
2022-08-05T06:45:07.685Z,17.6
2022-08-05T06:46:44.018Z,17.6
2022-08-05T06:48:20.355Z,17.7
2022-08-05T06:49:56.686Z,17.7
2022-08-05T06:51:33.019Z,17.7
2022-08-05T06:53:08.362Z,17.7
2022-08-05T06:54:44.709Z,17.7
2022-08-05T06:56:21.020Z,17.6
2022-08-05T06:57:57.351Z,17.6
2022-08-05T06:59:33.688Z,17.7
2022-08-05T07:01:10.019Z,17.7
2022-08-05T07:02:46.369Z,17.6
2022-08-05T07:04:22.678Z,17.6
2022-08-05T07:05:59.012Z,17.5
2022-08-05T07:07:35.331Z,17.4
2022-08-05T07:09:11.675Z,17.3
2022-08-05T07:10:48.009Z,17.3
2022-08-05T07:12:24.340Z,17.3
2022-08-05T07:13:59.692Z,17.3
2022-08-05T07:15:36.004Z,17.2
2022-08-05T07:17:12.348Z,17.2
2022-08-05T07:18:48.664Z,17.2
2022-08-05T07:20:24.998Z,17.1
2022-08-05T07:22:01.350Z,17.1
2022-08-05T07:23:37.661Z,17.1
2022-08-05T07:25:13.985Z,17.1
2022-08-05T07:26:50.322Z,17.1
2022-08-05T07:28:26.642Z,17.1
2022-08-05T07:30:02.983Z,17
2022-08-05T07:31:39.320Z,17
2022-08-05T07:33:15.639Z,17
2022-08-05T07:34:51.972Z,16.9
2022-08-05T07:36:28.315Z,17
2022-08-05T07:38:03.651Z,17
2022-08-05T07:39:39.985Z,17
2022-08-05T07:41:16.312Z,16.9
2022-08-05T07:42:52.645Z,16.9
2022-08-05T07:44:28.971Z,17
2022-08-05T07:46:05.304Z,16.9
2022-08-05T07:47:41.643Z,16.9
2022-08-05T07:49:17.970Z,16.9
2022-08-05T07:50:54.303Z,16.9
2022-08-05T07:52:30.635Z,16.8
2022-08-05T07:54:06.958Z,16.7
2022-08-05T07:55:43.299Z,16.7
2022-08-05T07:57:19.629Z,16.8
2022-08-05T07:58:55.958Z,16.9
2022-08-05T08:00:31.301Z,16.9
2022-08-05T08:02:07.634Z,16.8
2022-08-05T08:03:43.968Z,16.8
2022-08-05T08:05:20.281Z,16.8
2022-08-05T08:06:56.617Z,16.8
2022-08-05T08:08:32.977Z,16.8
2022-08-05T08:10:09.289Z,16.8
2022-08-05T08:11:45.616Z,16.9
2022-08-05T08:13:21.941Z,16.9
2022-08-05T08:14:58.297Z,16.9
2022-08-05T08:16:34.613Z,16.9
2022-08-05T08:18:10.934Z,16.9
2022-08-05T08:19:47.267Z,17
2022-08-05T08:21:23.596Z,16.9
2022-08-05T08:22:58.943Z,16.9
2022-08-05T08:24:35.280Z,17
2022-08-05T08:26:11.613Z,16.9
2022-08-05T08:27:47.973Z,16.9
2022-08-05T08:29:24.283Z,17
2022-08-05T08:31:00.625Z,17
2022-08-05T08:32:36.927Z,17
2022-08-05T08:35:49.588Z,16.9
2022-08-05T08:37:25.931Z,16.9
2022-08-05T08:39:02.267Z,16.9
2022-08-05T08:42:14.917Z,16.9
2022-08-05T08:43:51.267Z,16.8
2022-08-05T08:45:26.589Z,16.8
2022-08-05T08:47:02.930Z,16.7
2022-08-05T08:48:39.258Z,16.8
2022-08-05T08:50:15.588Z,16.8
2022-08-05T08:51:50.940Z,16.8
2022-08-05T08:53:27.265Z,16.8
2022-08-05T08:55:03.615Z,16.8
2022-08-05T08:56:39.940Z,16.7
2022-08-05T08:58:16.276Z,16.6
2022-08-05T08:59:52.602Z,16.7
2022-08-05T09:01:28.922Z,16.5
2022-08-05T09:03:05.263Z,16.4
2022-08-05T09:04:41.594Z,16.3
2022-08-05T09:06:17.928Z,16.3
2022-08-05T09:07:54.249Z,16.3
2022-08-05T09:09:30.580Z,16.3
2022-08-05T09:11:06.927Z,16.3
2022-08-05T09:12:42.273Z,16.3
2022-08-05T09:14:18.592Z,16.4
2022-08-05T09:15:54.954Z,16.4
2022-08-05T09:17:31.256Z,16.4
2022-08-05T09:19:07.602Z,16.5
2022-08-05T09:20:43.907Z,16.5
2022-08-05T09:22:20.249Z,16.5
2022-08-05T09:23:56.568Z,16.6
2022-08-05T09:25:32.901Z,16.6
2022-08-05T09:27:09.240Z,16.7
2022-08-05T09:28:45.599Z,16.7
2022-08-05T09:30:21.893Z,16.7
2022-08-05T09:31:58.224Z,16.7
2022-08-05T09:33:34.556Z,16.7
2022-08-05T09:36:46.240Z,16.8
2022-08-05T09:38:22.560Z,16.8
2022-08-05T09:39:58.893Z,16.9
2022-08-05T09:41:35.228Z,16.9
2022-08-05T09:43:11.550Z,16.9
2022-08-05T09:44:47.896Z,17
2022-08-05T09:46:24.217Z,16.9
2022-08-05T09:48:00.551Z,16.9
2022-08-05T09:49:36.875Z,16.9
2022-08-05T09:52:49.539Z,16.9
2022-08-05T09:54:25.878Z,17
2022-08-05T09:56:02.210Z,17
2022-08-05T09:57:37.550Z,17
2022-08-05T09:59:13.888Z,17
2022-08-05T10:00:50.213Z,17
2022-08-05T10:02:26.540Z,17
2022-08-05T10:04:02.877Z,17
2022-08-05T10:05:39.205Z,17
2022-08-05T10:07:15.546Z,17
2022-08-05T10:08:51.863Z,17.1
2022-08-05T10:10:28.194Z,17
2022-08-05T10:12:04.526Z,17
2022-08-05T10:13:40.853Z,16.9
2022-08-05T10:15:17.187Z,16.9
2022-08-05T10:16:53.538Z,16.9
2022-08-05T10:18:29.870Z,17
2022-08-05T10:20:06.179Z,17
2022-08-05T10:21:41.522Z,17
2022-08-05T10:23:17.857Z,17
2022-08-05T10:24:54.190Z,17
2022-08-05T10:26:30.535Z,17
2022-08-05T10:28:06.854Z,17
2022-08-05T10:29:43.174Z,17.1
2022-08-05T10:31:19.509Z,17.2
2022-08-05T10:32:55.875Z,17.2
2022-08-05T10:34:32.198Z,17.1
2022-08-05T10:36:08.514Z,17.1
2022-08-05T10:37:44.835Z,17.1
2022-08-05T10:39:21.169Z,17
2022-08-05T10:40:57.493Z,17.1
2022-08-05T10:42:32.845Z,17.2
2022-08-05T10:44:09.173Z,17.3
2022-08-05T10:45:45.507Z,17.3
2022-08-05T10:47:21.831Z,17.3
2022-08-05T10:48:58.169Z,17.3
2022-08-05T10:50:34.493Z,17.4
2022-08-05T10:52:10.823Z,17.4
2022-08-05T10:53:47.153Z,17.5
2022-08-05T10:55:23.498Z,17.5
2022-08-05T10:56:59.823Z,17.6
2022-08-05T10:58:36.146Z,17.6
2022-08-05T11:00:12.483Z,17.8
2022-08-05T11:01:48.806Z,17.8
2022-08-05T11:03:24.163Z,17.8
2022-08-05T11:05:00.499Z,17.9
2022-08-05T11:06:36.819Z,18
2022-08-05T11:08:13.153Z,18.1
2022-08-05T11:09:49.486Z,18.3
2022-08-05T11:11:25.821Z,18.3
2022-08-05T11:13:02.149Z,18.5
2022-08-05T11:14:38.469Z,18.5
2022-08-05T11:16:14.812Z,18.4
2022-08-05T11:17:51.142Z,18.4
2022-08-05T11:19:27.464Z,18.4
2022-08-05T11:21:03.813Z,18.4
2022-08-05T11:22:40.127Z,18.5
2022-08-05T11:24:15.487Z,18.8
2022-08-05T11:25:51.808Z,19
2022-08-05T11:27:28.143Z,19.1
2022-08-05T11:29:04.467Z,19.3
2022-08-05T11:30:40.800Z,19.2
2022-08-05T11:32:17.132Z,19.3
2022-08-05T11:33:53.450Z,19.3
2022-08-05T11:35:29.794Z,19.3
2022-08-05T11:37:06.151Z,19.3
2022-08-05T11:38:42.450Z,19.4
2022-08-05T11:40:18.807Z,19.6
2022-08-05T11:41:55.110Z,19.7
2022-08-05T11:43:31.434Z,19.7
2022-08-05T11:45:07.768Z,19.8
2022-08-05T11:46:43.128Z,19.7
2022-08-05T11:48:19.451Z,19.7
2022-08-05T11:49:55.781Z,19.4
2022-08-05T11:51:32.117Z,19.3
2022-08-05T11:53:08.439Z,19.3
2022-08-05T11:54:44.774Z,19.4
2022-08-05T11:56:21.155Z,19.5
2022-08-05T11:57:57.437Z,19.6
2022-08-05T11:59:33.766Z,19.8
2022-08-05T12:01:10.103Z,19.9
2022-08-05T12:02:46.426Z,19.9
2022-08-05T12:04:22.767Z,19.9
2022-08-05T12:05:59.082Z,19.8
2022-08-05T12:07:34.433Z,19.8
2022-08-05T12:09:10.767Z,19.7
2022-08-05T12:10:47.091Z,19.8
2022-08-05T12:12:23.428Z,19.8
2022-08-05T12:13:59.758Z,19.8
2022-08-05T12:15:36.097Z,20
2022-08-05T12:17:12.417Z,20
2022-08-05T12:18:48.782Z,20.1
2022-08-05T12:20:25.080Z,20.1
2022-08-05T12:22:01.421Z,20
2022-08-05T12:23:37.741Z,20.1
2022-08-05T12:25:14.068Z,20.2
2022-08-05T12:26:50.409Z,20.2
2022-08-05T12:28:25.747Z,20.3
2022-08-05T12:30:02.089Z,20.3
2022-08-05T12:31:38.417Z,20.2
2022-08-05T12:33:14.747Z,20.1
2022-08-05T12:34:51.084Z,20.2
2022-08-05T12:36:27.404Z,20.2
2022-08-05T12:38:03.731Z,20.2
2022-08-05T12:39:40.075Z,20
2022-08-05T12:41:16.398Z,19.9
2022-08-05T12:42:52.721Z,19.9
2022-08-05T12:44:29.056Z,20.1
2022-08-05T12:46:05.392Z,20.1
2022-08-05T12:47:41.722Z,20.3
2022-08-05T12:49:18.056Z,20.3
2022-08-05T12:50:54.391Z,20.4
2022-08-05T12:52:29.738Z,20.4
2022-08-05T12:54:06.063Z,20.5
2022-08-05T12:55:42.390Z,20.5
2022-08-05T12:57:18.729Z,20.5
2022-08-05T12:58:55.065Z,20.4
2022-08-05T13:00:31.382Z,20.4
2022-08-05T13:02:07.713Z,20.4
2022-08-05T13:03:44.077Z,20.4
2022-08-05T13:05:20.383Z,20.4
2022-08-05T13:06:56.702Z,20.4
2022-08-05T13:08:33.034Z,20.4
2022-08-05T13:10:09.365Z,20.4
2022-08-05T13:11:45.699Z,20.3
2022-08-05T13:13:21.056Z,20.1
2022-08-05T13:14:57.383Z,20.1
2022-08-05T13:16:33.715Z,20.1
2022-08-05T13:18:10.045Z,20.2
2022-08-05T13:19:46.378Z,20.3
2022-08-05T13:21:22.705Z,20.2
2022-08-05T13:22:59.054Z,20.2
2022-08-05T13:24:35.359Z,20.2
2022-08-05T13:26:11.692Z,20.1
2022-08-05T13:27:48.027Z,20.2
2022-08-05T13:29:24.374Z,20.1
2022-08-05T13:31:00.686Z,20.1
2022-08-05T13:32:37.020Z,20.1
2022-08-05T13:34:12.375Z,20.2
2022-08-05T13:35:48.701Z,20.2
2022-08-05T13:37:25.027Z,20.2
2022-08-05T13:39:01.362Z,20.3
2022-08-05T13:40:37.687Z,20.3
2022-08-05T13:42:14.022Z,20.3
2022-08-05T13:43:50.351Z,20.4
2022-08-05T13:45:26.679Z,20.5
2022-08-05T13:47:03.027Z,20.5
2022-08-05T13:48:39.345Z,20.6
2022-08-05T13:50:15.670Z,20.7
2022-08-05T13:51:52.009Z,20.7
2022-08-05T13:53:28.336Z,20.8
2022-08-05T13:55:03.678Z,20.8
2022-08-05T13:56:40.007Z,20.9
2022-08-05T13:58:16.347Z,20.8
2022-08-05T13:59:52.695Z,20.8
2022-08-05T14:01:29.008Z,20.8
2022-08-05T14:03:05.342Z,20.8
2022-08-05T14:04:41.676Z,20.8
2022-08-05T14:06:18.006Z,20.8
2022-08-05T14:07:54.347Z,20.8
2022-08-05T14:09:30.656Z,20.8
2022-08-05T14:11:06.997Z,20.8
2022-08-05T14:12:43.336Z,20.8
2022-08-05T14:14:18.676Z,20.7
2022-08-05T14:15:55.011Z,20.7
2022-08-05T14:17:31.541Z,20.7
2022-08-05T14:19:07.661Z,20.7
2022-08-05T14:20:44.016Z,20.7
2022-08-05T14:22:20.348Z,20.6
2022-08-05T14:23:56.705Z,20.6
2022-08-05T14:25:33.002Z,20.6
2022-08-05T14:27:09.332Z,20.6
2022-08-05T14:28:45.654Z,20.6
2022-08-05T14:30:21.990Z,20.5
2022-08-05T14:31:58.319Z,20.5
2022-08-05T14:33:34.652Z,20.5
2022-08-05T14:35:09.994Z,20.6
2022-08-05T14:36:46.325Z,20.6
2022-08-05T14:38:22.648Z,20.6
2022-08-05T14:39:59.008Z,20.6
2022-08-05T14:41:35.319Z,20.6
2022-08-05T14:43:11.665Z,20.6
2022-08-05T14:44:47.976Z,20.6
2022-08-05T14:46:24.303Z,20.6
2022-08-05T14:48:00.649Z,20.6
2022-08-05T14:49:36.977Z,20.7
2022-08-05T14:51:13.299Z,20.7
2022-08-05T14:52:49.631Z,20.7
2022-08-05T14:54:25.976Z,20.7
2022-08-05T14:56:01.326Z,20.7
2022-08-05T14:57:37.640Z,20.7
2022-08-05T14:59:13.973Z,20.7
2022-08-05T15:00:50.293Z,20.7
2022-08-05T15:02:26.628Z,20.7
2022-08-05T15:04:01.993Z,20.8
2022-08-05T15:05:38.329Z,20.8
2022-08-05T15:07:14.655Z,20.9
2022-08-05T15:08:50.007Z,20.9
2022-08-05T15:10:26.330Z,21
2022-08-05T15:12:02.711Z,21
2022-08-05T15:13:38.993Z,21.1
2022-08-05T15:15:15.336Z,21.1
2022-08-05T15:16:51.654Z,21.1
2022-08-05T15:18:28.000Z,21.1
2022-08-05T15:20:04.331Z,21.2
2022-08-05T15:21:40.646Z,21.2
2022-08-05T15:23:16.980Z,21.2
2022-08-05T15:24:53.312Z,21.2
2022-08-05T15:26:29.646Z,21.2
2022-08-05T15:28:06.031Z,21.2
2022-08-05T15:29:41.315Z,21.3
2022-08-05T15:31:17.646Z,21.4
2022-08-05T15:32:53.003Z,21.4
2022-08-05T15:34:28.356Z,21.4
2022-08-05T15:36:04.717Z,21.4
2022-08-05T15:37:41.030Z,21.5
2022-08-05T15:39:17.343Z,21.5
2022-08-05T15:40:53.670Z,21.5
2022-08-05T15:42:30.003Z,21.5
2022-08-05T15:44:06.372Z,21.5
2022-08-05T15:45:42.689Z,21.5
2022-08-05T15:47:18.998Z,21.6
2022-08-05T15:48:55.337Z,21.7
2022-08-05T15:50:31.651Z,21.7
2022-08-05T15:52:07.984Z,21.7
2022-08-05T15:53:44.338Z,21.8
2022-08-05T15:55:19.671Z,21.8
2022-08-05T15:56:55.999Z,21.8
2022-08-05T15:58:32.325Z,21.8
2022-08-05T16:00:08.670Z,21.8
2022-08-05T16:01:45.004Z,21.9
2022-08-05T16:03:21.323Z,21.8
2022-08-05T16:04:57.659Z,21.8
2022-08-05T16:06:33.996Z,21.8
2022-08-05T16:08:10.314Z,21.8
2022-08-05T16:09:46.689Z,21.9
2022-08-05T16:11:22.979Z,21.9
2022-08-05T16:12:59.327Z,21.8
2022-08-05T16:14:35.639Z,21.8
2022-08-05T16:16:10.981Z,21.8
2022-08-05T16:17:47.322Z,21.7
2022-08-05T16:19:23.665Z,21.7
2022-08-05T16:20:59.980Z,21.5
2022-08-05T16:22:36.307Z,21.4
2022-08-05T16:24:12.649Z,21.3
2022-08-05T16:25:48.961Z,21.3
2022-08-05T16:27:25.315Z,21.2
2022-08-05T16:29:01.632Z,21.2
2022-08-05T16:30:37.983Z,21.2
2022-08-05T16:32:14.310Z,21
2022-08-05T16:33:50.619Z,20.8
2022-08-05T16:35:26.948Z,20.7
2022-08-05T16:37:02.334Z,20.7
2022-08-05T16:38:38.622Z,20.7
2022-08-05T16:40:14.949Z,20.6
2022-08-05T16:41:51.297Z,20.6
2022-08-05T16:43:27.622Z,20.5
2022-08-05T16:45:03.953Z,20.5
2022-08-05T16:46:40.305Z,20.4
2022-08-05T16:48:16.615Z,20.5
2022-08-05T16:49:52.948Z,20.4
2022-08-05T16:51:29.268Z,20.5
2022-08-05T16:53:05.604Z,20.5
2022-08-05T16:54:41.963Z,20.5
2022-08-05T16:56:18.284Z,20.5
2022-08-05T16:57:53.622Z,20.6
2022-08-05T16:59:29.974Z,20.6
2022-08-05T17:01:06.275Z,20.6
2022-08-05T17:02:42.621Z,20.5
2022-08-05T17:04:18.970Z,20.5
2022-08-05T17:05:55.281Z,20.5
2022-08-05T17:07:31.620Z,20.5
2022-08-05T17:09:07.959Z,20.5
2022-08-05T17:10:44.320Z,20.5
2022-08-05T17:12:20.614Z,20.4
2022-08-05T17:13:56.931Z,20.4
2022-08-05T17:15:33.252Z,20.5
2022-08-05T17:17:09.664Z,20.5
2022-08-05T17:18:44.941Z,20.5
2022-08-05T17:20:21.265Z,20.4
2022-08-05T17:21:57.604Z,20.4
2022-08-05T17:23:33.925Z,20.4
2022-08-05T17:25:10.267Z,20.4
2022-08-05T17:26:46.575Z,20.4
2022-08-05T17:28:22.915Z,20.4
2022-08-05T17:29:59.251Z,20.4
2022-08-05T17:31:35.590Z,20.4
2022-08-05T17:33:11.911Z,20.4
2022-08-05T17:34:48.258Z,20.4
2022-08-05T17:36:24.567Z,20.4
2022-08-05T17:38:00.912Z,20.4
2022-08-05T17:39:36.275Z,20.5
2022-08-05T17:41:12.569Z,20.5
2022-08-05T17:42:48.914Z,20.5
2022-08-05T17:44:25.236Z,20.5
2022-08-05T17:46:01.575Z,20.5
2022-08-05T17:47:37.931Z,20.5
2022-08-05T17:49:14.255Z,20.5
2022-08-05T17:50:50.560Z,20.5
2022-08-05T17:52:26.893Z,20.5
2022-08-05T17:54:03.221Z,20.5
2022-08-05T17:55:39.588Z,20.5
2022-08-05T17:57:15.909Z,20.5
2022-08-05T17:58:52.231Z,20.5
2022-08-05T18:00:27.587Z,20.4
2022-08-05T18:02:03.898Z,20.3
2022-08-05T18:03:40.217Z,20.3
2022-08-05T18:05:16.561Z,20.3
2022-08-05T18:06:52.911Z,20.3
2022-08-05T18:08:29.256Z,20.2
2022-08-05T18:10:05.545Z,20.2
2022-08-05T18:11:41.875Z,20.1
2022-08-05T18:13:18.225Z,20.1
2022-08-05T18:14:54.556Z,20.1
2022-08-05T18:16:30.891Z,20.1
2022-08-05T18:18:07.210Z,20.1
2022-08-05T18:19:43.576Z,20
2022-08-05T18:21:19.866Z,20
2022-08-05T18:22:55.219Z,19.9
2022-08-05T18:24:31.549Z,19.9
2022-08-05T18:26:07.863Z,19.9
2022-08-05T18:27:44.209Z,19.8
2022-08-05T18:29:20.541Z,19.8
2022-08-05T18:30:56.873Z,19.7
2022-08-05T18:32:32.245Z,19.7
2022-08-05T18:34:07.597Z,19.7
2022-08-05T18:35:42.924Z,19.6
2022-08-05T18:37:19.261Z,19.6
2022-08-05T18:38:54.617Z,19.6
2022-08-05T18:40:30.971Z,19.6
2022-08-05T18:42:07.262Z,19.6
2022-08-05T18:43:43.594Z,19.5
2022-08-05T18:45:19.929Z,19.5
2022-08-05T18:46:56.251Z,19.5
2022-08-05T18:48:32.587Z,19.4
2022-08-05T18:50:08.925Z,19.4
2022-08-05T18:51:45.242Z,19.4
2022-08-05T18:53:21.582Z,19.4
2022-08-05T18:54:57.953Z,19.3
2022-08-05T18:56:34.269Z,19.3
2022-08-05T18:58:10.574Z,19.3
2022-08-05T18:59:46.904Z,19.3
2022-08-05T19:01:22.245Z,19.2
2022-08-05T19:02:58.604Z,19.2
2022-08-05T19:04:34.941Z,19.2
2022-08-05T19:06:11.263Z,19.1
2022-08-05T19:07:47.610Z,19.1
2022-08-05T19:09:23.903Z,19.1
2022-08-05T19:11:00.234Z,19
2022-08-05T19:12:36.577Z,19
2022-08-05T19:14:12.899Z,18.9
2022-08-05T19:15:49.223Z,18.9
2022-08-05T19:17:25.552Z,18.9
2022-08-05T19:19:01.892Z,18.8
2022-08-05T19:20:38.213Z,18.8
2022-08-05T19:22:14.556Z,18.7
2022-08-05T19:23:49.895Z,18.7
2022-08-05T19:25:26.224Z,18.7
2022-08-05T19:27:02.557Z,18.7
2022-08-05T19:28:38.893Z,18.6
2022-08-05T19:30:15.225Z,18.6
2022-08-05T19:31:51.544Z,18.6
2022-08-05T19:33:27.873Z,18.6
2022-08-05T19:35:04.223Z,18.6
2022-08-05T19:36:39.564Z,18.6
2022-08-05T19:38:15.917Z,18.5
2022-08-05T19:39:52.227Z,18.5
2022-08-05T19:41:28.561Z,18.5
2022-08-05T19:43:04.881Z,18.5
2022-08-05T19:44:41.218Z,18.4
2022-08-05T19:46:17.546Z,18.4
2022-08-05T19:47:53.876Z,18.4
2022-08-05T19:49:30.208Z,18.4
2022-08-05T19:51:06.540Z,18.3
2022-08-05T19:52:42.869Z,18.3
2022-08-05T19:54:19.206Z,18.3
2022-08-05T19:55:55.539Z,18.3
2022-08-05T19:57:30.875Z,18.2
2022-08-05T19:59:07.209Z,18.2
2022-08-05T20:00:43.540Z,18.2
2022-08-05T20:02:19.869Z,18.2
2022-08-05T20:03:56.201Z,18.1
2022-08-05T20:05:32.527Z,18.1
2022-08-05T20:07:08.868Z,18.1
2022-08-05T20:08:45.228Z,18.1
2022-08-05T20:10:21.548Z,18.1
2022-08-05T20:11:57.851Z,18
2022-08-05T20:13:34.202Z,18
2022-08-05T20:15:10.521Z,18
2022-08-05T20:16:46.851Z,18
2022-08-05T20:18:22.185Z,17.9
2022-08-05T20:19:58.526Z,17.9
2022-08-05T20:21:34.857Z,17.9
2022-08-05T20:23:11.185Z,17.8
2022-08-05T20:24:47.517Z,17.8
2022-08-05T20:26:23.843Z,17.7
2022-08-05T20:28:00.175Z,17.7
2022-08-05T20:29:36.513Z,17.7
2022-08-05T20:31:12.835Z,17.7
2022-08-05T20:32:49.167Z,17.7
2022-08-05T20:34:25.507Z,17.6
2022-08-05T20:36:01.828Z,17.6
2022-08-05T20:37:38.165Z,17.6
2022-08-05T20:39:13.507Z,17.6
2022-08-05T20:40:49.840Z,17.6
2022-08-05T20:42:26.182Z,17.5
2022-08-05T20:44:02.498Z,17.5
2022-08-05T20:45:38.838Z,17.5
2022-08-05T20:47:15.158Z,17.4
2022-08-05T20:48:51.508Z,17.4
2022-08-05T20:50:27.822Z,17.4
2022-08-05T20:52:04.150Z,17.4
2022-08-05T20:53:40.483Z,17.4
2022-08-05T20:55:16.814Z,17.3
2022-08-05T20:56:53.158Z,17.3
2022-08-05T20:58:29.469Z,17.3
2022-08-05T21:00:04.821Z,17.2
2022-08-05T21:01:41.153Z,17.2
2022-08-05T21:03:17.483Z,17.2
2022-08-05T21:04:53.817Z,17.2
2022-08-05T21:06:30.141Z,17.1
2022-08-05T21:08:06.484Z,17.1
2022-08-05T21:09:42.802Z,17.1
2022-08-05T21:11:19.156Z,17.1
2022-08-05T21:12:55.473Z,17.1
2022-08-05T21:14:31.805Z,17
2022-08-05T21:16:08.131Z,17
2022-08-05T21:17:44.482Z,17
2022-08-05T21:19:20.795Z,17
2022-08-05T21:20:56.146Z,17
2022-08-05T21:22:32.468Z,17
2022-08-05T21:24:08.800Z,16.9
2022-08-05T21:25:45.131Z,16.9
2022-08-05T21:27:21.460Z,16.9
2022-08-05T21:28:57.825Z,16.9
2022-08-05T21:30:34.117Z,16.8
2022-08-05T21:32:10.463Z,16.8
2022-08-05T21:33:46.793Z,16.8
2022-08-05T21:35:23.110Z,16.8
2022-08-05T21:36:59.461Z,16.7
2022-08-05T21:38:35.801Z,16.7
2022-08-05T21:40:12.103Z,16.7
2022-08-05T21:41:48.429Z,16.7
2022-08-05T21:43:23.779Z,16.7
2022-08-05T21:45:00.108Z,16.6